Time;durP1;ratioP1;P1;durP2;ratioP2;P2;SDS_P1;SDS_P2;PMS_P1;PMS_P2;Temp;Humidity;BMP_temperature;BMP_pressure;BME280_temperature;BME280_humidity;BME280_pressure;Samples;Min_cycle;Max_cycle;Signal;HPM_P1;HPM_P2
2022/07/22 00:00:47;;;;;;;7.15;5.90;;;;;;;27.31;50.38;98505.09;5015022;28;20037;-61
2022/07/22 00:03:12;;;;;;;7.82;6.03;;;;;;;26.99;51.49;98478.41;5016870;28;20689;-62
2022/07/22 00:05:37;;;;;;;8.45;5.72;;;;;;;27.19;51.71;98509.78;5015279;28;21094;-61
2022/07/22 00:08:03;;;;;;;7.45;5.88;;;;;;;27.21;52.38;98507.66;5016547;28;20700;-61
2022/07/22 00:10:29;;;;;;;8.90;5.88;;;;;;;27.22;51.83;98503.94;5011253;28;20025;-62
2022/07/22 00:12:54;;;;;;;11.02;5.82;;;;;;;27.24;51.98;98507.16;5017546;28;20136;-61
2022/07/22 00:15:20;;;;;;;10.95;5.95;;;;;;;27.09;52.46;98478.50;5017744;28;20009;-61
2022/07/22 00:17:45;;;;;;;9.05;5.85;;;;;;;27.02;52.07;98476.03;5017467;28;20075;-61
2022/07/22 00:20:10;;;;;;;9.07;5.90;;;;;;;27.18;52.01;98502.81;5018057;28;20045;-62
2022/07/22 00:22:36;;;;;;;8.63;6.20;;;;;;;27.15;51.77;98504.16;5017659;28;20579;-61
2022/07/22 00:25:02;;;;;;;7.78;5.90;;;;;;;27.17;52.47;98506.56;5016253;28;20017;-60
2022/07/22 00:27:27;;;;;;;8.50;6.32;;;;;;;27.08;52.84;98490.22;5016262;28;20381;-60
2022/07/22 00:29:53;;;;;;;9.48;6.10;;;;;;;27.16;52.93;98504.94;5016502;28;20028;-62
2022/07/22 00:32:18;;;;;;;8.88;6.50;;;;;;;27.10;53.15;98501.44;5019344;28;20055;-61
2022/07/22 00:34:43;;;;;;;8.90;6.15;;;;;;;26.95;53.60;98474.66;5011488;28;20097;-61
2022/07/22 00:37:09;;;;;;;10.15;5.70;;;;;;;27.16;52.91;98491.59;5014070;28;20033;-62
2022/07/22 00:39:35;;;;;;;9.63;5.93;;;;;;;26.89;54.10;98499.66;5017539;28;20030;-61
2022/07/22 00:42:00;;;;;;;8.27;6.28;;;;;;;26.76;54.46;98464.38;5016021;28;20507;-61
2022/07/22 00:44:25;;;;;;;9.32;6.32;;;;;;;26.99;54.50;98494.44;5016705;28;20532;-60
2022/07/22 00:46:51;;;;;;;8.73;6.28;;;;;;;26.85;55.07;98473.53;4998435;28;20127;-62
2022/07/22 00:49:16;;;;;;;7.95;6.50;;;;;;;26.96;55.33;98497.59;4995741;28;20033;-59
2022/07/22 00:51:43;;;;;;;9.68;6.13;;;;;;;26.92;55.69;98491.97;5015634;28;20412;-62
2022/07/22 00:54:09;;;;;;;8.13;6.15;;;;;;;26.93;55.37;98490.13;4998929;28;20500;-61
2022/07/22 00:56:34;;;;;;;7.70;6.15;;;;;;;26.96;55.65;98485.09;5014094;28;20033;-61
2022/07/22 00:59:04;;;;;;;7.65;5.97;;;;;;;26.82;54.93;98458.03;5010054;28;20111;-61
2022/07/22 01:01:29;;;;;;;8.45;6.75;;;;;;;27.01;54.97;98487.75;5012656;28;20037;-61
2022/07/22 01:03:55;;;;;;;8.95;6.40;;;;;;;26.94;55.48;98489.88;5010168;28;20656;-61
2022/07/22 01:06:20;;;;;;;9.15;6.13;;;;;;;26.94;55.55;98489.88;5001323;28;20187;-61
2022/07/22 01:08:45;;;;;;;8.55;6.45;;;;;;;26.89;55.57;98483.66;4997172;28;20037;-61
2022/07/22 01:11:20;;;;;;;9.02;5.90;;;;;;;26.66;55.13;98461.59;5012337;28;20034;-61
2022/07/22 01:13:46;;;;;;;8.63;6.15;;;;;;;26.70;54.54;98459.25;5010873;28;20543;-61
2022/07/22 01:16:13;;;;;;;8.75;6.40;;;;;;;26.90;54.85;98494.09;4996845;28;20028;-61
2022/07/22 01:18:39;;;;;;;8.38;6.00;;;;;;;26.68;55.15;98456.81;5013132;28;20377;-62
2022/07/22 01:21:05;;;;;;;10.43;6.22;;;;;;;26.65;55.53;98466.16;5012128;28;20033;-60
2022/07/22 01:23:31;;;;;;;8.35;6.03;;;;;;;26.58;56.29;98510.84;5014780;28;20096;-61
2022/07/22 01:25:57;;;;;;;9.15;6.50;;;;;;;26.47;56.57;98488.59;5008345;28;20378;-60
2022/07/22 01:28:23;;;;;;;8.05;6.18;;;;;;;26.54;56.87;98503.59;4991564;28;20021;-60
2022/07/22 01:30:49;;;;;;;10.38;6.28;;;;;;;26.55;56.43;98500.66;5015918;28;20115;-60
2022/07/22 01:33:16;;;;;;;8.98;6.38;;;;;;;26.37;57.05;98496.47;5015602;28;20071;-60
2022/07/22 01:35:41;;;;;;;10.80;6.47;;;;;;;26.28;57.40;98464.16;5000267;28;20021;-60
2022/07/22 01:38:07;;;;;;;8.68;6.22;;;;;;;26.57;56.98;98489.75;5016043;28;20111;-61
2022/07/22 01:40:32;;;;;;;10.05;6.28;;;;;;;26.59;56.50;98496.44;5016427;28;20152;-60
2022/07/22 01:42:58;;;;;;;8.48;6.05;;;;;;;26.52;55.92;98495.84;5015270;28;20068;-61
2022/07/22 01:45:23;;;;;;;8.65;6.20;;;;;;;26.59;56.03;98507.09;5019440;28;20034;-61
2022/07/22 01:47:49;;;;;;;8.80;6.38;;;;;;;26.52;56.27;98498.50;5016688;28;20041;-61
2022/07/22 01:50:14;;;;;;;8.48;6.25;;;;;;;26.57;55.98;98508.41;5013545;28;20480;-63
2022/07/22 01:52:40;;;;;;;9.43;6.88;;;;;;;26.62;56.15;98495.19;5019586;28;20112;-61
2022/07/22 01:55:07;;;;;;;9.25;6.05;;;;;;;26.65;56.21;98500.00;5019223;28;20018;-61
2022/07/22 01:57:33;;;;;;;7.32;5.93;;;;;;;26.61;56.03;98501.56;5021561;28;20022;-60
2022/07/22 01:59:58;;;;;;;9.18;6.28;;;;;;;26.38;56.04;98497.31;5021943;28;20026;-61
2022/07/22 02:02:24;;;;;;;9.40;6.50;;;;;;;26.47;56.43;98503.81;5020568;28;20029;-61
2022/07/22 02:04:49;;;;;;;7.75;5.90;;;;;;;26.52;56.71;98503.81;5020638;28;20357;-61
2022/07/22 02:07:14;;;;;;;10.80;6.63;;;;;;;26.55;56.31;98510.53;5034712;28;20021;-61
2022/07/22 02:09:40;;;;;;;8.95;6.10;;;;;;;26.57;56.87;98506.56;5022946;28;20029;-61
2022/07/22 02:12:06;;;;;;;9.75;6.32;;;;;;;26.54;57.51;98507.06;5022367;28;20124;-61
2022/07/22 02:14:31;;;;;;;8.50;6.47;;;;;;;26.51;57.04;98515.56;5018548;28;20032;-61
2022/07/22 02:16:56;;;;;;;9.02;5.97;;;;;;;26.33;57.67;98515.91;5021355;28;21272;-60
2022/07/22 02:19:23;;;;;;;7.90;6.30;;;;;;;26.36;57.72;98510.06;5021074;28;20041;-61
2022/07/22 02:21:48;;;;;;;8.63;6.32;;;;;;;26.39;57.93;98513.03;5004841;28;20538;-61
2022/07/22 02:24:14;;;;;;;9.52;6.85;;;;;;;26.38;58.35;98507.97;5035734;28;20118;-60
2022/07/22 02:26:40;;;;;;;8.95;5.93;;;;;;;26.42;58.48;98509.88;5019633;28;20064;-61
2022/07/22 02:29:05;;;;;;;9.25;6.07;;;;;;;26.44;58.63;98507.75;5026420;28;20087;-61
2022/07/22 02:31:31;;;;;;;8.43;6.53;;;;;;;26.48;58.43;98505.41;5020705;28;20029;-61
2022/07/22 02:33:56;;;;;;;9.45;6.25;;;;;;;26.26;58.43;98470.78;5001475;28;20029;-60
2022/07/22 02:36:21;;;;;;;11.23;6.68;;;;;;;26.45;58.20;98508.59;5051770;28;20479;-61
2022/07/22 02:38:47;;;;;;;8.70;6.47;;;;;;;26.20;57.99;98466.47;5003775;28;20033;-62
2022/07/22 02:41:12;;;;;;;9.48;6.28;;;;;;;26.42;58.42;98517.88;5017467;28;20040;-60
2022/07/22 02:43:38;;;;;;;7.88;6.57;;;;;;;26.40;59.14;98508.53;5021267;28;20113;-61
2022/07/22 02:46:03;;;;;;;9.60;6.63;;;;;;;26.34;58.90;98509.50;5018200;28;20412;-61
2022/07/22 02:48:29;;;;;;;7.85;6.25;;;;;;;26.30;59.43;98508.41;5022041;28;20722;-61
2022/07/22 02:50:54;;;;;;;9.15;6.63;;;;;;;26.39;59.58;98517.56;5020979;28;20083;-61
2022/07/22 02:53:19;;;;;;;9.40;6.25;;;;;;;26.37;59.22;98517.00;5022053;28;20055;-59
2022/07/22 02:55:45;;;;;;;9.68;6.60;;;;;;;26.33;59.59;98508.72;5016905;28;20018;-61
2022/07/22 02:58:10;;;;;;;9.23;6.40;;;;;;;26.13;59.79;98471.19;5019803;28;20332;-61
2022/07/22 03:00:37;;;;;;;9.45;6.45;;;;;;;26.29;59.50;98502.28;5002437;28;20160;-62
2022/07/22 03:03:03;;;;;;;11.18;6.65;;;;;;;26.20;58.75;98515.22;5017379;28;20832;-61
2022/07/22 03:05:29;;;;;;;8.57;6.60;;;;;;;26.19;59.64;98512.81;5035585;28;20025;-60
2022/07/22 03:07:54;;;;;;;7.90;6.45;;;;;;;26.22;59.38;98517.66;5002901;28;20080;-62
2022/07/22 03:10:20;;;;;;;9.13;6.47;;;;;;;26.02;59.00;98475.59;5019435;28;20033;-61
2022/07/22 03:12:45;;;;;;;8.88;6.43;;;;;;;26.22;59.25;98513.13;5021299;28;20124;-61
2022/07/22 03:15:10;;;;;;;7.95;6.43;;;;;;;26.24;59.58;98516.34;5017878;28;20021;-61
2022/07/22 03:17:37;;;;;;;8.35;6.10;;;;;;;26.17;59.75;98513.06;5033909;28;20036;-61
2022/07/22 03:20:04;;;;;;;7.85;6.65;;;;;;;26.09;59.56;98508.97;5034947;28;20033;-61
2022/07/22 03:22:29;;;;;;;11.15;6.25;;;;;;;25.87;59.10;98486.84;4998917;28;20119;-60
2022/07/22 03:24:54;;;;;;;8.25;6.22;;;;;;;26.08;58.77;98517.22;5018635;28;20029;-61
2022/07/22 03:27:20;;;;;;;7.47;6.30;;;;;;;25.89;58.72;98492.72;5016341;28;20029;-61
2022/07/22 03:29:45;;;;;;;7.47;5.90;;;;;;;26.04;59.61;98524.88;5019907;28;20165;-61
2022/07/22 03:32:11;;;;;;;9.88;6.88;;;;;;;25.86;59.37;98488.69;5019663;28;20038;-61
2022/07/22 03:34:36;;;;;;;8.95;6.30;;;;;;;25.98;60.19;98527.75;5032488;28;20113;-60
2022/07/22 03:37:02;;;;;;;10.18;6.30;;;;;;;25.86;60.27;98523.28;5016772;28;20040;-61
2022/07/22 03:39:27;;;;;;;8.02;6.50;;;;;;;25.77;60.68;98524.78;5017277;28;20108;-61
2022/07/22 03:41:53;;;;;;;12.43;6.32;;;;;;;25.34;61.26;98494.38;5020691;28;20124;-61
2022/07/22 03:44:18;;;;;;;9.20;6.70;;;;;;;25.48;62.00;98524.94;4994634;28;20477;-61
2022/07/22 03:46:43;;;;;;;9.40;6.57;;;;;;;25.36;61.65;98492.28;5010418;28;20025;-61
2022/07/22 03:49:09;;;;;;;8.32;6.68;;;;;;;25.42;61.99;98517.91;4995355;28;20033;-60
2022/07/22 03:51:34;;;;;;;13.27;6.82;;;;;;;25.39;62.16;98526.38;5022084;28;20033;-61
2022/07/22 03:54:00;;;;;;;9.10;6.90;;;;;;;25.33;62.43;98528.13;5003932;28;20365;-63
2022/07/22 03:56:25;;;;;;;8.68;6.28;;;;;;;25.39;62.21;98529.06;5020136;28;20029;-60
2022/07/22 03:58:50;;;;;;;10.27;6.57;;;;;;;25.39;62.30;98526.38;4998202;28;20419;-62
2022/07/22 04:01:16;;;;;;;9.45;6.82;;;;;;;25.35;62.29;98524.44;5013851;28;20071;-61
2022/07/22 04:03:41;;;;;;;13.68;7.53;;;;;;;25.42;62.20;98525.09;4996820;28;20416;-62
2022/07/22 04:06:07;;;;;;;9.88;6.65;;;;;;;25.39;61.72;98514.91;5017762;28;20053;-62
2022/07/22 04:08:32;;;;;;;10.25;6.78;;;;;;;25.32;62.09;98509.78;5003192;28;20033;-62
2022/07/22 04:10:58;;;;;;;9.38;6.63;;;;;;;25.42;61.55;98520.56;5019736;28;20029;-61
2022/07/22 04:13:23;;;;;;;10.40;6.63;;;;;;;25.13;62.14;98493.22;5015758;28;20037;-62
2022/07/22 04:15:48;;;;;;;8.77;6.43;;;;;;;25.14;61.92;98487.66;5051338;28;20404;-62
2022/07/22 04:18:17;;;;;;;9.30;7.03;;;;;;;25.41;61.51;98528.78;5015333;28;20033;-61
2022/07/22 04:20:42;;;;;;;8.80;6.53;;;;;;;25.30;61.76;98523.31;5051582;28;20107;-61
2022/07/22 04:23:08;;;;;;;8.48;6.45;;;;;;;25.16;61.54;98498.06;5035157;28;20520;-62
2022/07/22 04:25:33;;;;;;;10.25;6.82;;;;;;;25.35;61.60;98527.09;5019855;28;20079;-62
2022/07/22 04:27:59;;;;;;;8.00;6.43;;;;;;;25.34;61.27;98528.97;5017691;28;20114;-61
2022/07/22 04:30:24;;;;;;;11.82;7.25;;;;;;;25.29;61.48;98535.00;5020073;28;20103;-62
2022/07/22 04:32:49;;;;;;;9.10;6.65;;;;;;;25.43;60.71;98535.50;5035143;28;20484;-62
2022/07/22 04:35:15;;;;;;;8.43;6.28;;;;;;;25.27;60.53;98528.31;5018163;28;20040;-62
2022/07/22 04:37:40;;;;;;;9.30;6.90;;;;;;;25.31;60.57;98540.88;5035164;28;20064;-61
2022/07/22 04:40:06;;;;;;;10.20;6.43;;;;;;;25.30;60.53;98523.31;5019782;28;20116;-61
2022/07/22 04:42:31;;;;;;;8.95;6.82;;;;;;;25.14;60.43;98495.63;5019591;28;20846;-61
2022/07/22 04:44:57;;;;;;;9.85;6.32;;;;;;;25.43;59.61;98532.03;5019673;28;20029;-62
2022/07/22 04:47:22;;;;;;;9.20;6.57;;;;;;;25.37;59.73;98541.75;5019296;28;20120;-62
2022/07/22 04:49:48;;;;;;;8.85;6.85;;;;;;;25.37;59.77;98531.13;5000628;28;20037;-62
2022/07/22 04:52:13;;;;;;;8.00;6.20;;;;;;;24.99;59.65;98474.13;5053205;28;20449;-61
2022/07/22 04:54:39;;;;;;;9.27;6.78;;;;;;;25.38;60.11;98534.59;5019533;28;20042;-62
2022/07/22 04:57:04;;;;;;;10.63;6.68;;;;;;;25.26;61.20;98534.69;4999968;28;20080;-61
2022/07/22 04:59:29;;;;;;;9.80;7.00;;;;;;;25.27;61.13;98536.31;5018695;28;20472;-61
2022/07/22 05:01:55;;;;;;;8.38;6.47;;;;;;;25.32;60.98;98541.72;5002014;28;20503;-61
2022/07/22 05:04:20;;;;;;;12.02;7.00;;;;;;;25.26;61.39;98534.69;5014923;28;20613;-61
2022/07/22 05:06:46;;;;;;;10.07;6.70;;;;;;;25.33;60.97;98552.09;5014469;28;20424;-61
2022/07/22 05:09:11;;;;;;;9.30;6.47;;;;;;;25.33;60.78;98554.75;5017627;28;20033;-63
2022/07/22 05:11:36;;;;;;;10.70;6.70;;;;;;;25.08;60.60;98520.56;5018944;28;21835;-60
2022/07/22 05:14:02;;;;;;;14.40;7.03;;;;;;;25.35;60.62;98543.06;5011847;28;20118;-63
2022/07/22 05:16:27;;;;;;;9.52;7.13;;;;;;;25.42;60.48;98552.50;5002156;28;20030;-61
2022/07/22 05:18:53;;;;;;;11.18;6.65;;;;;;;25.28;60.95;98545.88;5011364;28;20404;-62
2022/07/22 05:21:18;;;;;;;9.85;6.75;;;;;;;25.32;61.61;98561.13;4996164;28;20057;-61
2022/07/22 05:23:43;;;;;;;9.45;6.80;;;;;;;25.35;61.66;98556.38;5011161;28;20048;-61
2022/07/22 05:26:09;;;;;;;9.43;6.50;;;;;;;25.25;61.67;98554.38;5020020;28;20455;-61
2022/07/22 05:28:34;;;;;;;9.40;7.05;;;;;;;25.33;61.31;98551.28;5017669;28;20022;-62
2022/07/22 05:31:00;;;;;;;7.57;6.05;;;;;;;25.35;61.67;98551.84;5019339;28;20029;-61
2022/07/22 05:33:25;;;;;;;9.18;6.95;;;;;;;25.31;61.23;98548.06;5022987;28;20021;-61
2022/07/22 05:35:51;;;;;;;8.40;6.63;;;;;;;25.32;61.52;98550.50;5023023;28;20739;-61
2022/07/22 05:38:16;;;;;;;8.68;6.53;;;;;;;25.24;61.58;98548.22;5023776;28;20029;-63
2022/07/22 05:40:42;;;;;;;9.38;7.00;;;;;;;25.30;60.71;98555.25;5021769;28;20033;-62
2022/07/22 05:43:07;;;;;;;8.50;6.55;;;;;;;25.27;61.05;98549.59;5036863;28;20430;-63
2022/07/22 05:45:33;;;;;;;9.23;6.45;;;;;;;25.35;60.83;98553.72;5020682;28;20415;-60
2022/07/22 05:47:58;;;;;;;9.30;6.78;;;;;;;25.32;60.44;98549.69;5022473;28;20388;-59
2022/07/22 05:50:24;;;;;;;14.88;7.00;;;;;;;25.44;59.63;98560.25;5017486;28;20025;-62
2022/07/22 05:52:49;;;;;;;13.00;6.85;;;;;;;25.46;58.90;98547.50;5013781;28;20060;-60
2022/07/22 05:55:14;;;;;;;8.27;6.20;;;;;;;25.48;60.51;98556.88;5018303;28;20029;-61
2022/07/22 05:57:40;;;;;;;8.18;6.65;;;;;;;25.26;62.07;98561.28;5035253;28;20033;-61
2022/07/22 06:00:06;;;;;;;12.32;6.35;;;;;;;25.34;62.14;98555.56;5022348;28;20030;-60
2022/07/22 06:02:32;;;;;;;9.48;6.60;;;;;;;25.26;62.41;98554.13;5014509;28;20029;-60
2022/07/22 06:05:00;;;;;;;10.10;6.90;;;;;;;25.32;62.24;98553.16;5014718;28;20689;-62
2022/07/22 06:07:26;;;;;;;9.60;6.95;;;;;;;25.35;62.09;98567.81;5022461;28;20033;-59
2022/07/22 06:09:51;;;;;;;8.27;6.57;;;;;;;25.19;62.05;98561.44;5023209;28;20033;-59
2022/07/22 06:12:17;;;;;;;9.60;6.95;;;;;;;25.35;61.68;98561.69;5022516;28;20038;-60
2022/07/22 06:14:43;;;;;;;9.88;6.20;;;;;;;25.39;61.05;98570.81;5023818;28;20833;-59
2022/07/22 06:17:08;;;;;;;9.85;6.97;;;;;;;25.43;60.83;98567.44;5018201;28;20592;-59
2022/07/22 06:19:34;;;;;;;7.82;6.72;;;;;;;25.15;61.10;98544.31;5022984;28;20029;-60
2022/07/22 06:21:59;;;;;;;12.63;6.80;;;;;;;25.31;61.01;98570.16;5035965;28;20033;-60
2022/07/22 06:24:25;;;;;;;8.27;6.57;;;;;;;25.34;60.50;98576.88;5005345;28;20429;-61
2022/07/22 06:26:51;;;;;;;9.55;6.85;;;;;;;25.45;60.05;98569.84;5005958;28;20101;-59
2022/07/22 06:29:16;;;;;;;9.82;6.60;;;;;;;25.46;58.87;98577.59;5021263;28;20132;-59
2022/07/22 06:31:42;;;;;;;7.97;6.35;;;;;;;25.55;57.92;98583.28;5022644;28;20177;-60
2022/07/22 06:34:07;;;;;;;9.63;6.70;;;;;;;25.55;57.19;98577.19;5022534;28;20029;-59
2022/07/22 06:36:33;;;;;;;9.43;6.38;;;;;;;25.59;56.92;98581.78;5022975;28;20029;-59
2022/07/22 06:38:58;;;;;;;9.90;6.05;;;;;;;25.57;56.98;98585.72;5022155;28;20033;-59
2022/07/22 06:41:24;;;;;;;9.65;6.50;;;;;;;25.59;57.60;98580.97;5022993;28;20051;-59
2022/07/22 06:43:50;;;;;;;8.90;6.50;;;;;;;25.56;57.38;98584.13;5019195;28;20103;-59
2022/07/22 06:46:15;;;;;;;10.77;6.88;;;;;;;25.54;58.81;98581.69;5021761;28;20034;-58
2022/07/22 06:48:40;;;;;;;10.73;6.68;;;;;;;25.61;58.47;98585.00;5020559;28;20435;-59
2022/07/22 06:51:06;;;;;;;9.18;6.88;;;;;;;25.60;58.04;98585.25;5016554;28;20583;-59
2022/07/22 06:53:32;;;;;;;9.60;7.20;;;;;;;25.62;57.96;98583.94;5018534;28;20037;-60
2022/07/22 06:55:58;;;;;;;9.18;6.82;;;;;;;25.77;58.67;98594.00;5003587;28;20017;-59
2022/07/22 06:58:23;;;;;;;9.27;6.78;;;;;;;25.87;58.28;98590.69;5019020;28;20507;-59
2022/07/22 07:00:48;;;;;;;9.80;6.90;;;;;;;25.96;58.28;98583.94;5015186;28;20121;-59
2022/07/22 07:03:14;;;;;;;9.30;7.28;;;;;;;25.97;58.34;98585.53;5016490;28;20047;-60
2022/07/22 07:05:40;;;;;;;10.27;6.53;;;;;;;26.00;58.31;98585.03;5021156;28;20037;-59
2022/07/22 07:08:05;;;;;;;8.75;6.55;;;;;;;26.08;57.71;98591.81;5015760;28;20476;-59
2022/07/22 07:10:30;;;;;;;9.35;6.82;;;;;;;25.91;58.02;98549.19;5018798;28;20488;-60
2022/07/22 07:12:57;;;;;;;9.70;7.47;;;;;;;26.27;57.92;98589.66;5052913;28;20030;-60
2022/07/22 07:15:23;;;;;;;9.15;6.78;;;;;;;26.32;56.62;98586.25;5013717;28;20052;-59
2022/07/22 07:17:49;;;;;;;8.88;6.28;;;;;;;26.43;53.81;98588.78;5000700;28;20026;-59
2022/07/22 07:20:14;;;;;;;9.90;6.45;;;;;;;26.58;52.57;98585.50;5018595;28;20028;-59
2022/07/22 07:22:40;;;;;;;10.05;6.53;;;;;;;26.54;52.03;98557.72;5020870;28;20541;-59
2022/07/22 07:25:07;;;;;;;8.50;6.70;;;;;;;26.83;52.14;98584.16;5017517;28;20036;-59
2022/07/22 07:27:33;;;;;;;9.75;6.70;;;;;;;26.87;50.99;98571.13;5020661;28;20145;-58
2022/07/22 07:29:58;;;;;;;11.07;6.88;;;;;;;27.02;49.78;98582.75;5021510;28;20697;-60
2022/07/22 07:32:24;;;;;;;8.23;6.70;;;;;;;27.14;49.72;98574.59;5019644;28;20029;-60
2022/07/22 07:34:49;;;;;;;9.80;6.32;;;;;;;27.12;51.30;98570.56;5036169;28;20029;-59
2022/07/22 07:37:15;;;;;;;9.07;6.80;;;;;;;27.06;50.33;98579.59;5018743;28;20709;-59
2022/07/22 07:39:40;;;;;;;8.70;6.28;;;;;;;27.12;50.77;98584.72;5003169;28;20028;-59
2022/07/22 07:42:06;;;;;;;7.93;6.15;;;;;;;27.24;50.24;98573.88;5016730;28;20034;-59
2022/07/22 07:44:31;;;;;;;9.20;6.70;;;;;;;27.38;51.55;98577.78;5019188;28;20122;-59
2022/07/22 07:46:57;;;;;;;9.25;6.53;;;;;;;27.41;52.02;98577.25;5017463;28;20051;-59
2022/07/22 07:49:22;;;;;;;9.50;6.75;;;;;;;27.48;50.24;98576.25;5000480;28;20128;-59
2022/07/22 07:51:48;;;;;;;8.00;6.40;;;;;;;27.73;52.47;98579.06;5012952;28;20080;-61
2022/07/22 07:54:13;;;;;;;10.90;6.60;;;;;;;28.24;51.06;98575.06;5016928;28;20034;-59
2022/07/22 07:56:38;;;;;;;8.55;6.68;;;;;;;28.63;48.09;98564.81;5018429;28;20330;-60
2022/07/22 07:59:04;;;;;;;8.38;6.35;;;;;;;29.06;48.16;98577.97;5017521;28;20017;-61
2022/07/22 08:01:29;;;;;;;9.10;6.97;;;;;;;29.36;45.67;98577.22;5017871;28;20570;-60
2022/07/22 08:03:55;;;;;;;9.68;6.20;;;;;;;29.43;45.54;98528.75;5017514;28;20431;-60
2022/07/22 08:06:20;;;;;;;9.57;6.75;;;;;;;29.51;46.61;98573.72;5004498;28;20035;-60
2022/07/22 08:08:45;;;;;;;9.73;6.57;;;;;;;29.61;46.78;98576.41;5001032;28;20029;-59
2022/07/22 08:11:11;;;;;;;8.65;6.50;;;;;;;29.53;46.48;98574.25;5032901;28;20033;-59
2022/07/22 08:13:36;;;;;;;11.00;6.90;;;;;;;29.87;45.93;98552.25;5016403;28;20022;-60
2022/07/22 08:16:02;;;;;;;8.27;6.40;;;;;;;30.03;45.65;98545.78;5017851;28;20034;-60
2022/07/22 08:18:29;;;;;;;9.05;6.57;;;;;;;30.18;45.42;98570.94;5011592;28;20034;-60
2022/07/22 08:20:55;;;;;;;11.73;6.72;;;;;;;30.06;45.32;98581.94;5000404;28;20084;-59
2022/07/22 08:23:21;;;;;;;8.90;6.78;;;;;;;29.66;46.14;98548.78;5015555;28;20042;-59
2022/07/22 08:25:46;;;;;;;8.13;6.32;;;;;;;29.60;47.04;98565.97;5013625;28;20041;-59
2022/07/22 08:28:12;;;;;;;8.00;6.50;;;;;;;29.47;46.40;98567.31;5017177;28;20075;-60
2022/07/22 08:30:39;;;;;;;8.90;6.75;;;;;;;29.53;46.18;98571.56;4999070;28;20029;-59
2022/07/22 08:33:05;;;;;;;8.85;6.35;;;;;;;29.78;45.98;98570.78;5017366;28;20017;-58
2022/07/22 08:35:31;;;;;;;9.00;6.75;;;;;;;29.95;44.60;98567.75;5013522;28;20033;-61
2022/07/22 08:37:56;;;;;;;8.70;6.65;;;;;;;29.94;45.09;98571.53;5013770;28;20715;-58
2022/07/22 08:40:22;;;;;;;7.85;5.80;;;;;;;30.01;45.12;98573.91;5018659;28;20510;-60
2022/07/22 08:42:48;;;;;;;7.70;6.40;;;;;;;30.20;44.59;98564.19;5034266;28;20500;-60
2022/07/22 08:45:14;;;;;;;8.77;6.55;;;;;;;30.20;43.52;98574.13;5014227;28;20648;-60
2022/07/22 08:47:40;;;;;;;9.65;6.28;;;;;;;30.04;43.42;98563.44;5012554;28;20096;-59
2022/07/22 08:50:06;;;;;;;7.57;6.50;;;;;;;29.83;44.02;98533.25;5017465;28;20778;-58
2022/07/22 08:52:31;;;;;;;9.82;5.70;;;;;;;29.88;43.66;98537.78;5019218;28;20029;-59
2022/07/22 08:54:57;;;;;;;9.63;6.38;;;;;;;30.04;45.10;98562.66;5016636;28;20021;-60
2022/07/22 08:57:22;;;;;;;10.85;6.63;;;;;;;29.70;45.60;98542.63;5002060;28;20112;-60
2022/07/22 08:59:49;;;;;;;8.20;6.47;;;;;;;29.90;46.07;98565.13;5019576;28;20024;-60
2022/07/22 09:02:15;;;;;;;9.80;6.80;;;;;;;29.72;45.63;98563.81;5016729;28;20056;-58
2022/07/22 09:04:58;;;;;;;10.93;6.57;;;;;;;29.61;44.14;98559.50;5015576;28;20018;-59
2022/07/22 09:07:24;;;;;;;9.48;6.57;;;;;;;29.55;45.68;98531.94;5032214;28;20076;-60
2022/07/22 09:09:49;;;;;;;8.23;6.38;;;;;;;29.62;44.30;98535.13;5018175;28;20104;-60
2022/07/22 09:12:15;;;;;;;8.93;6.85;;;;;;;29.87;45.84;98554.94;5019318;28;20552;-60
2022/07/22 09:14:54;;;;;;;11.18;6.35;;;;;;;29.99;45.64;98559.97;5016502;28;20025;-60
2022/07/22 09:17:23;;;;;;;;;;;;;;;29.66;45.20;98564.88;5018574;28;20029;-60
2022/07/22 09:19:48;;;;;;;8.25;6.32;;;;;;;29.61;42.92;98551.47;5009376;28;19921;-61
2022/07/22 09:22:14;;;;;;;8.48;6.38;;;;;;;29.60;43.82;98534.59;5014615;28;20324;-60
2022/07/22 09:24:39;;;;;;;8.93;6.63;;;;;;;29.89;43.43;98556.25;5013718;28;20122;-61
2022/07/22 09:27:06;;;;;;;10.30;6.68;;;;;;;30.53;43.62;98556.56;5013615;28;20404;-59
2022/07/22 09:29:32;;;;;;;8.57;6.35;;;;;;;31.25;42.33;98556.06;5018649;28;20113;-61
2022/07/22 09:31:57;;;;;;;8.88;6.45;;;;;;;31.29;42.28;98557.13;5018329;28;20029;-60
2022/07/22 09:34:34;;;;;;;9.00;6.63;;;;;;;31.12;41.33;98522.63;5016418;28;20599;-60
2022/07/22 09:37:00;;;;;;;8.65;6.57;;;;;;;31.19;42.78;98546.47;5015662;28;20029;-61
2022/07/22 09:39:31;;;;;;;8.85;6.90;;;;;;;31.23;42.33;98559.06;5016390;28;20108;-59
2022/07/22 09:42:01;;;;;;;7.95;6.25;;;;;;;30.89;43.60;98550.19;5010527;28;20373;-60
2022/07/22 09:44:27;;;;;;;7.68;6.47;;;;;;;30.92;42.76;98546.94;5016730;28;20116;-59
2022/07/22 09:46:52;;;;;;;8.43;6.60;;;;;;;31.09;43.15;98542.00;5011565;28;20029;-58
2022/07/22 09:49:38;;;;;;;10.73;6.45;;;;;;;31.16;42.47;98547.84;5014703;28;20100;-60
2022/07/22 09:52:04;;;;;;;8.85;6.28;;;;;;;31.16;43.59;98545.16;5016585;28;20616;-59
2022/07/22 09:54:30;;;;;;;9.55;6.47;;;;;;;30.89;43.31;98540.25;5015371;28;20022;-58
2022/07/22 09:56:57;;;;;;;7.97;6.53;;;;;;;30.73;42.67;98533.38;5015038;28;20104;-59
2022/07/22 09:59:22;;;;;;;9.27;6.65;;;;;;;30.73;42.59;98536.84;5018007;28;20033;-59
2022/07/22 10:01:50;;;;;;;9.48;6.55;;;;;;;30.42;42.10;98504.06;5015524;28;20030;-59
2022/07/22 10:04:18;;;;;;;8.45;6.78;;;;;;;30.39;43.82;98502.75;5015970;28;20022;-58
2022/07/22 10:06:44;;;;;;;8.50;6.57;;;;;;;30.31;42.25;98505.97;5013147;28;20116;-58
2022/07/22 10:09:11;;;;;;;9.50;6.55;;;;;;;30.49;43.69;98533.25;5000940;28;20029;-57
2022/07/22 10:11:37;;;;;;;8.25;6.45;;;;;;;30.54;44.66;98520.63;5025983;28;20025;-60
2022/07/22 10:14:02;;;;;;;10.38;6.88;;;;;;;30.81;44.22;98525.53;5019094;28;20578;-58
2022/07/22 10:16:28;;;;;;;8.23;6.40;;;;;;;30.78;43.86;98522.63;5019805;28;20554;-58
2022/07/22 10:18:54;;;;;;;9.40;6.40;;;;;;;30.78;43.25;98528.78;5015291;28;20030;-57
2022/07/22 10:21:32;;;;;;;8.43;6.68;;;;;;;30.89;42.86;98526.81;5020014;28;20034;-57
2022/07/22 10:24:17;;;;;;;10.15;6.10;;;;;;;30.88;43.17;98519.03;5046591;28;20026;-58
2022/07/22 10:26:51;;;;;;;8.95;6.30;;;;;;;31.01;43.96;98513.06;5017221;28;20308;-57
2022/07/22 10:29:47;;;;;;;8.05;6.28;;;;;;;31.22;42.52;98506.44;5035768;28;20041;-57
2022/07/22 10:32:15;;;;;;;8.30;5.95;;;;;;;31.29;39.31;98503.41;5017569;28;20092;-57
2022/07/22 10:34:41;;;;;;;10.10;5.70;;;;;;;31.31;40.35;98495.09;5022202;28;21005;-57
2022/07/22 10:37:34;;;;;;;11.07;6.13;;;;;;;31.42;40.61;98504.63;5019634;28;20494;-57
2022/07/22 10:40:24;;;;;;;10.32;5.95;;;;;;;31.48;40.20;98500.81;5019033;28;20037;-58
2022/07/22 10:43:06;;;;;;;9.30;6.10;;;;;;;31.46;43.41;98499.50;5005414;28;20022;-58
2022/07/22 10:45:46;;;;;;;9.18;6.03;;;;;;;31.47;43.74;98495.72;5019316;28;20679;-58
2022/07/22 10:48:14;;;;;;;7.55;6.10;;;;;;;31.62;42.87;98474.09;5020195;28;20017;-58
2022/07/22 10:51:20;;;;;;;7.47;6.20;;;;;;;31.73;43.15;98490.91;5055042;28;20039;-58
2022/07/22 10:53:51;;;;;;;9.60;6.25;;;;;;;31.48;42.63;98462.44;5010505;28;20045;-58
2022/07/22 10:56:25;;;;;;;11.40;6.20;;;;;;;31.80;40.62;98492.16;5019170;28;20875;-58
2022/07/22 10:58:58;;;;;;;9.25;6.20;;;;;;;31.90;40.71;98485.03;5029405;28;20037;-57
2022/07/22 11:01:30;;;;;;;9.50;5.93;;;;;;;31.76;40.52;98485.75;5014230;28;20025;-59
2022/07/22 11:04:07;;;;;;;10.07;6.53;;;;;;;31.81;39.83;98485.66;5020497;28;20059;-58
2022/07/22 11:06:33;;;;;;;10.07;6.07;;;;;;;31.74;40.71;98479.03;5021098;28;20030;-57
2022/07/22 11:09:01;;;;;;;9.75;5.97;;;;;;;31.98;39.41;98481.69;5013354;28;20050;-60
2022/07/22 11:11:38;;;;;;;10.35;6.28;;;;;;;31.97;39.09;98474.75;5019258;28;20028;-57
2022/07/22 11:14:11;;;;;;;9.75;5.97;;;;;;;32.27;40.25;98468.16;5019208;28;20108;-58
2022/07/22 11:16:36;;;;;;;10.48;5.97;;;;;;;32.17;40.22;98474.50;5019105;28;20034;-58
2022/07/22 11:19:02;;;;;;;8.73;6.45;;;;;;;32.19;40.74;98466.94;5016552;28;20044;-58
2022/07/22 11:21:32;;;;;;;8.90;6.20;;;;;;;32.12;41.39;98449.56;5018445;28;20057;-58
2022/07/22 11:23:59;;;;;;;8.73;6.38;;;;;;;32.29;40.54;98465.19;5016246;28;20725;-58
2022/07/22 11:26:36;;;;;;;10.20;5.95;;;;;;;32.26;39.49;98461.19;5017400;28;20032;-58
2022/07/22 11:29:02;;;;;;;9.38;6.55;;;;;;;32.49;40.28;98456.00;5014792;28;20137;-58